Time,TemperatureF,DewpointF,PressureIn,WindDirection,WindDirectionDegrees,WindSpeedMPH,WindSpeedGustMPH,Humidity,HourlyPrecipIn,Conditions,Clouds,dailyrainin,SolarRadiationWatts/m^2,SoftwareType,DateUTC
2013-08-21 00:01:00,65.0,61.0,30.10,West,260,0.0,-999.0,88,-99.99,,,0.00,0,weatherlink.com 1.10,2013-08-21 04:01:00,
2013-08-21 00:16:00,64.7,62.0,30.11,West,260,0.0,-999.0,89,-99.99,,,0.00,0,weatherlink.com 1.10,2013-08-21 04:16:00,
2013-08-21 00:31:00,64.4,61.0,30.11,West,260,0.0,-999.0,89,-99.99,,,0.00,0,weatherlink.com 1.10,2013-08-21 04:31:00,
2013-08-21 00:46:00,64.2,61.0,30.10,West,260,1.0,-999.0,90,-99.99,,,0.00,0,weatherlink.com 1.10,2013-08-21 04:46:00,
2013-08-21 01:01:00,64.1,61.0,30.10,West,260,0.0,-999.0,90,-99.99,,,0.00,0,weatherlink.com 1.10,2013-08-21 05:01:00,
2013-08-21 01:16:00,64.1,62.0,30.10,West,260,0.0,-999.0,92,-99.99,,,0.00,0,weatherlink.com 1.10,2013-08-21 05:16:00,
2013-08-21 01:31:00,64.2,61.0,30.10,West,260,0.0,-999.0,90,-99.99,,,0.00,0,weatherlink.com 1.10,2013-08-21 05:31:00,
2013-08-21 01:46:00,64.0,61.0,30.10,West,260,0.0,-999.0,90,-99.99,,,0.00,0,weatherlink.com 1.10,2013-08-21 05:46:00,
2013-08-21 02:01:00,63.8,61.0,30.10,West,260,0.0,-999.0,90,-99.99,,,0.00,0,weatherlink.com 1.10,2013-08-21 06:01:00,
2013-08-21 02:16:00,64.0,61.0,30.10,West,260,0.0,-999.0,90,-99.99,,,0.00,0,weatherlink.com 1.10,2013-08-21 06:16:00,
2013-08-21 02:31:00,63.8,61.0,30.10,West,260,0.0,-999.0,90,-99.99,,,0.00,0,weatherlink.com 1.10,2013-08-21 06:31:00,
2013-08-21 02:46:00,63.6,61.0,30.10,West,260,0.0,-999.0,90,-99.99,,,0.00,0,weatherlink.com 1.10,2013-08-21 06:46:00,
2013-08-21 03:01:00,63.4,61.0,30.10,West,260,0.0,-999.0,90,-99.99,,,0.00,0,weatherlink.com 1.10,2013-08-21 07:01:00,
2013-08-21 03:16:00,63.4,61.0,30.10,West,260,0.0,-999.0,91,-99.99,,,0.00,0,weatherlink.com 1.10,2013-08-21 07:16:00,
2013-08-21 03:31:00,63.1,61.0,30.10,West,260,0.0,-999.0,91,-99.99,,,0.00,0,weatherlink.com 1.10,2013-08-21 07:31:00,
2013-08-21 03:46:00,62.8,60.0,30.10,West,260,0.0,-999.0,91,-99.99,,,0.00,0,weatherlink.com 1.10,2013-08-21 07:46:00,
2013-08-21 04:01:00,62.4,60.0,30.11,West,260,0.0,-999.0,91,-99.99,,,0.00,0,weatherlink.com 1.10,2013-08-21 08:01:00,
2013-08-21 04:16:00,62.2,60.0,30.11,West,260,0.0,-999.0,92,-99.99,,,0.00,0,weatherlink.com 1.10,2013-08-21 08:16:00,
2013-08-21 04:31:00,61.9,60.0,30.11,West,260,0.0,-999.0,92,-99.99,,,0.00,0,weatherlink.com 1.10,2013-08-21 08:31:00,
2013-08-21 04:46:00,61.6,59.0,30.11,West,260,0.0,-999.0,92,-99.99,,,0.00,0,weatherlink.com 1.10,2013-08-21 08:46:00,
2013-08-21 05:01:00,61.2,59.0,30.11,West,260,0.0,-999.0,92,-99.99,,,0.00,0,weatherlink.com 1.10,2013-08-21 09:01:00,
2013-08-21 05:16:00,61.0,59.0,30.11,West,260,0.0,-999.0,92,-99.99,,,0.00,0,weatherlink.com 1.10,2013-08-21 09:16:00,
2013-08-21 05:31:00,60.8,59.0,30.11,West,260,0.0,-999.0,93,-99.99,,,0.00,0,weatherlink.com 1.10,2013-08-21 09:31:00,
2013-08-21 05:46:00,60.6,59.0,30.11,West,260,1.0,-999.0,93,-99.99,,,0.00,0,weatherlink.com 1.10,2013-08-21 09:46:00,
2013-08-21 06:01:00,60.5,59.0,30.11,West,260,0.0,-999.0,93,-99.99,,,0.00,0,weatherlink.com 1.10,2013-08-21 10:01:00,
2013-08-21 06:16:00,60.2,58.0,30.12,West,260,0.0,-999.0,93,-99.99,,,0.00,0,weatherlink.com 1.10,2013-08-21 10:16:00,
2013-08-21 06:31:00,60.0,58.0,30.12,West,260,0.0,-999.0,93,-99.99,,,0.00,9,weatherlink.com 1.10,2013-08-21 10:31:00,
2013-08-21 06:46:00,59.9,58.0,30.12,West,260,0.0,-999.0,93,-99.99,,,0.00,23,weatherlink.com 1.10,2013-08-21 10:46:00,
2013-08-21 07:01:00,60.2,59.0,30.12,West,260,0.0,-999.0,94,-99.99,,,0.00,44,weatherlink.com 1.10,2013-08-21 11:01:00,
2013-08-21 07:17:00,60.6,59.0,30.12,West,260,0.0,-999.0,94,-99.99,,,0.00,77,weatherlink.com 1.10,2013-08-21 11:17:00,
2013-08-21 07:32:00,61.6,60.0,30.12,West,260,0.0,-999.0,94,-99.99,,,0.00,118,weatherlink.com 1.10,2013-08-21 11:32:00,
2013-08-21 07:47:00,62.7,61.0,30.13,West,260,0.0,-999.0,94,-99.99,,,0.00,148,weatherlink.com 1.10,2013-08-21 11:47:00,
2013-08-21 08:02:00,64.4,62.0,30.13,West,260,0.0,-999.0,92,-99.99,,,0.00,204,weatherlink.com 1.10,2013-08-21 12:02:00,
2013-08-21 08:17:00,66.6,62.0,30.13,WSW,246,2.0,-999.0,86,-99.99,,,0.00,251,weatherlink.com 1.10,2013-08-21 12:17:00,
2013-08-21 08:32:00,68.6,63.0,30.13,SW,229,0.0,-999.0,82,-99.99,,,0.00,304,weatherlink.com 1.10,2013-08-21 12:32:00,
2013-08-21 08:47:00,70.6,64.0,30.13,SW,227,0.0,-999.0,80,-99.99,,,0.00,341,weatherlink.com 1.10,2013-08-21 12:47:00,
2013-08-21 09:02:00,72.4,64.0,30.13,SW,217,4.0,-999.0,76,-99.99,,,0.00,380,weatherlink.com 1.10,2013-08-21 13:02:00,
2013-08-21 09:17:00,73.4,65.0,30.13,SSW,208,1.0,-999.0,74,-99.99,,,0.00,431,weatherlink.com 1.10,2013-08-21 13:17:00,
2013-08-21 09:32:00,74.4,65.0,30.13,SSE,162,2.0,-999.0,73,-99.99,,,0.00,494,weatherlink.com 1.10,2013-08-21 13:32:00,
2013-08-21 09:47:00,75.6,66.0,30.13,South,174,5.0,-999.0,71,-99.99,,,0.00,501,weatherlink.com 1.10,2013-08-21 13:47:00,
2013-08-21 10:02:00,76.6,66.0,30.13,SSE,152,2.0,-999.0,70,-99.99,,,0.00,538,weatherlink.com 1.10,2013-08-21 14:02:00,
2013-08-21 10:17:00,77.1,67.0,30.13,SE,139,4.0,-999.0,70,-99.99,,,0.00,684,weatherlink.com 1.10,2013-08-21 14:17:00,
2013-08-21 10:32:00,78.0,67.0,30.13,SE,133,5.0,-999.0,69,-99.99,,,0.00,619,weatherlink.com 1.10,2013-08-21 14:32:00,
2013-08-21 10:48:00,79.0,67.0,30.13,ESE,114,5.0,-999.0,67,-99.99,,,0.00,675,weatherlink.com 1.10,2013-08-21 14:48:00,
2013-08-21 11:02:00,79.9,67.0,30.13,SSE,152,4.0,-999.0,65,-99.99,,,0.00,766,weatherlink.com 1.10,2013-08-21 15:02:00,
2013-08-21 11:18:00,81.2,67.0,30.13,SSW,198,1.0,-999.0,62,-99.99,,,0.00,323,weatherlink.com 1.10,2013-08-21 15:18:00,
2013-08-21 11:33:00,82.9,67.0,30.13,SSW,199,0.0,-999.0,59,-99.99,,,0.00,740,weatherlink.com 1.10,2013-08-21 15:33:00,
2013-08-21 11:48:00,84.8,66.0,30.12,South,188,2.0,-999.0,54,-99.99,,,0.00,737,weatherlink.com 1.10,2013-08-21 15:48:00,
2013-08-21 12:03:00,85.0,66.0,30.12,SSW,198,0.0,-999.0,53,-99.99,,,0.00,779,weatherlink.com 1.10,2013-08-21 16:03:00,
2013-08-21 12:18:00,85.3,66.0,30.11,SE,138,8.0,-999.0,53,-99.99,,,0.00,777,weatherlink.com 1.10,2013-08-21 16:18:00,
2013-08-21 12:33:00,85.6,66.0,30.11,SSW,199,7.0,-999.0,52,-99.99,,,0.00,765,weatherlink.com 1.10,2013-08-21 16:33:00,
2013-08-21 12:48:00,86.6,66.0,30.11,WSW,257,7.0,-999.0,50,-99.99,,,0.00,410,weatherlink.com 1.10,2013-08-21 16:48:00,
2013-08-21 13:03:00,85.1,65.0,30.11,West,272,1.0,-999.0,52,-99.99,,,0.00,466,weatherlink.com 1.10,2013-08-21 17:03:00,
2013-08-21 13:18:00,85.1,65.0,30.11,WNW,302,6.0,-999.0,52,-99.99,,,0.00,916,weatherlink.com 1.10,2013-08-21 17:18:00,
2013-08-21 13:33:00,84.9,66.0,30.11,West,276,6.0,-999.0,53,-99.99,,,0.00,241,weatherlink.com 1.10,2013-08-21 17:33:00,
2013-08-21 13:48:00,84.2,65.0,30.11,WSW,250,7.0,-999.0,52,-99.99,,,0.00,810,weatherlink.com 1.10,2013-08-21 17:48:00,
2013-08-21 14:03:00,85.0,65.0,30.10,WSW,258,9.0,-999.0,52,-99.99,,,0.00,856,weatherlink.com 1.10,2013-08-21 18:03:00,
2013-08-21 14:18:00,86.6,66.0,30.09,WSW,244,6.0,-999.0,50,-99.99,,,0.00,830,weatherlink.com 1.10,2013-08-21 18:18:00,
2013-08-21 14:33:00,87.0,66.0,30.09,SSW,210,5.0,-999.0,50,-99.99,,,0.00,744,weatherlink.com 1.10,2013-08-21 18:33:00,
2013-08-21 14:48:00,87.0,65.0,30.08,WSW,252,2.0,-999.0,48,-99.99,,,0.00,738,weatherlink.com 1.10,2013-08-21 18:48:00,
2013-08-21 15:03:00,86.4,66.0,30.07,SE,145,1.0,-999.0,51,-99.99,,,0.00,721,weatherlink.com 1.10,2013-08-21 19:03:00,
2013-08-21 15:18:00,87.4,68.0,30.07,SSE,151,5.0,-999.0,52,-99.99,,,0.00,710,weatherlink.com 1.10,2013-08-21 19:18:00,
2013-08-21 15:33:00,86.2,65.0,30.06,SE,133,6.0,-999.0,50,-99.99,,,0.00,661,weatherlink.com 1.10,2013-08-21 19:33:00,
2013-08-21 15:48:00,86.3,66.0,30.05,SW,219,4.0,-999.0,51,-99.99,,,0.00,250,weatherlink.com 1.10,2013-08-21 19:48:00,
2013-08-21 16:03:00,86.3,66.0,30.05,South,177,0.0,-999.0,51,-99.99,,,0.00,668,weatherlink.com 1.10,2013-08-21 20:03:00,
2013-08-21 16:18:00,86.1,65.0,30.05,SW,236,2.0,-999.0,50,-99.99,,,0.00,169,weatherlink.com 1.10,2013-08-21 20:18:00,
2013-08-21 16:33:00,86.3,67.0,30.04,South,174,3.0,-999.0,53,-99.99,,,0.00,272,weatherlink.com 1.10,2013-08-21 20:33:00,
2013-08-21 16:48:00,86.6,66.0,30.03,SSW,211,5.0,-999.0,50,-99.99,,,0.00,483,weatherlink.com 1.10,2013-08-21 20:48:00,
2013-08-21 17:03:00,86.7,65.0,30.03,South,185,4.0,-999.0,49,-99.99,,,0.00,455,weatherlink.com 1.10,2013-08-21 21:03:00,
2013-08-21 17:18:00,86.4,67.0,30.02,SSW,209,2.0,-999.0,52,-99.99,,,0.00,397,weatherlink.com 1.10,2013-08-21 21:18:00,
2013-08-21 17:33:00,86.1,66.0,30.02,South,176,3.0,-999.0,52,-99.99,,,0.00,360,weatherlink.com 1.10,2013-08-21 21:33:00,
2013-08-21 17:48:00,84.9,66.0,30.02,SSE,150,4.0,-999.0,54,-99.99,,,0.00,327,weatherlink.com 1.10,2013-08-21 21:48:00,
2013-08-21 18:03:00,84.0,66.0,30.02,SSE,153,2.0,-999.0,55,-99.99,,,0.00,274,weatherlink.com 1.10,2013-08-21 22:03:00,
2013-08-21 18:18:00,84.2,68.0,30.01,SSE,157,0.0,-999.0,58,-99.99,,,0.00,230,weatherlink.com 1.10,2013-08-21 22:18:00,
2013-08-21 18:33:00,83.4,68.0,30.01,SE,144,0.0,-999.0,60,-99.99,,,0.00,188,weatherlink.com 1.10,2013-08-21 22:33:00,
2013-08-21 18:48:00,82.7,67.0,30.00,SE,144,5.0,-999.0,60,-99.99,,,0.00,134,weatherlink.com 1.10,2013-08-21 22:48:00,
2013-08-21 19:03:00,81.9,68.0,30.00,SE,144,1.0,-999.0,62,-99.99,,,0.00,90,weatherlink.com 1.10,2013-08-21 23:03:00,
2013-08-21 19:18:00,81.0,68.0,30.00,SE,144,2.0,-999.0,64,-99.99,,,0.00,54,weatherlink.com 1.10,2013-08-21 23:18:00,
2013-08-21 19:33:00,80.0,66.0,30.00,SE,144,1.0,-999.0,63,-99.99,,,0.00,23,weatherlink.com 1.10,2013-08-21 23:33:00,
2013-08-21 19:48:00,79.2,67.0,30.00,SE,144,0.0,-999.0,66,-99.99,,,0.00,9,weatherlink.com 1.10,2013-08-21 23:48:00,
2013-08-21 20:03:00,77.8,67.0,30.00,SE,144,1.0,-999.0,69,-99.99,,,0.00,0,weatherlink.com 1.10,2013-08-22 00:03:00,
2013-08-21 20:18:00,76.5,66.0,29.99,SE,144,4.0,-999.0,71,-99.99,,,0.00,0,weatherlink.com 1.10,2013-08-22 00:18:00,
2013-08-21 20:33:00,75.7,66.0,29.99,SE,144,1.0,-999.0,72,-99.99,,,0.00,0,weatherlink.com 1.10,2013-08-22 00:33:00,
2013-08-21 20:48:00,75.2,66.0,29.99,SE,144,4.0,-999.0,72,-99.99,,,0.00,0,weatherlink.com 1.10,2013-08-22 00:48:00,
2013-08-21 21:03:00,74.6,65.0,29.99,SE,144,2.0,-999.0,73,-99.99,,,0.00,0,weatherlink.com 1.10,2013-08-22 01:03:00,
2013-08-21 21:18:00,75.0,65.0,29.99,SE,138,4.0,-999.0,71,-99.99,,,0.00,0,weatherlink.com 1.10,2013-08-22 01:18:00,
2013-08-21 21:33:00,75.1,65.0,29.99,SE,134,1.0,-999.0,71,-99.99,,,0.00,0,weatherlink.com 1.10,2013-08-22 01:33:00,
2013-08-21 21:48:00,75.2,65.0,29.99,SE,131,0.0,-999.0,70,-99.99,,,0.00,0,weatherlink.com 1.10,2013-08-22 01:48:00,
2013-08-21 22:03:00,74.9,65.0,29.99,SE,131,0.0,-999.0,71,-99.99,,,0.00,0,weatherlink.com 1.10,2013-08-22 02:03:00,
2013-08-21 22:18:00,74.2,66.0,29.99,SE,131,0.0,-999.0,75,-99.99,,,0.00,0,weatherlink.com 1.10,2013-08-22 02:18:00,
2013-08-21 22:33:00,72.8,66.0,29.99,SE,131,0.0,-999.0,78,-99.99,,,0.00,0,weatherlink.com 1.10,2013-08-22 02:33:00,
2013-08-21 23:04:00,70.4,65.0,29.99,SE,139,1.0,-999.0,82,-99.99,,,0.00,0,weatherlink.com 1.10,2013-08-22 03:04:00,
2013-08-21 23:19:00,70.0,64.0,30.00,West,259,0.0,-999.0,82,-99.99,,,0.00,0,weatherlink.com 1.10,2013-08-22 03:19:00,
2013-08-21 23:34:00,69.8,64.0,30.00,West,260,0.0,-999.0,83,-99.99,,,0.00,0,weatherlink.com 1.10,2013-08-22 03:34:00,
2013-08-21 23:49:00,69.5,64.0,30.00,WSW,253,0.0,-999.0,83,-99.99,,,0.00,0,weatherlink.com 1.10,2013-08-22 03:49:00,